createdAt,value
2023-04-27T00:02:17.666Z,13.60
2023-04-27T00:04:46.119Z,13.58
2023-04-27T00:07:14.781Z,13.60
2023-04-27T00:09:43.258Z,13.59
2023-04-27T00:12:13.655Z,13.61
2023-04-27T00:14:42.107Z,13.64
2023-04-27T00:17:10.118Z,13.63
2023-04-27T00:19:40.241Z,13.57
2023-04-27T00:22:09.155Z,13.48
2023-04-27T00:24:37.427Z,13.44
2023-04-27T00:27:06.180Z,13.44
2023-04-27T00:29:34.941Z,13.41
2023-04-27T00:32:03.277Z,13.44
2023-04-27T00:34:31.426Z,13.42
2023-04-27T00:37:00.965Z,13.46
2023-04-27T00:39:29.204Z,13.50
2023-04-27T00:41:57.427Z,13.53
2023-04-27T00:44:27.244Z,13.55
2023-04-27T00:46:56.294Z,13.52
2023-04-27T00:49:24.790Z,13.45
2023-04-27T00:51:52.596Z,13.41
2023-04-27T00:54:23.920Z,13.36
2023-04-27T00:56:52.829Z,13.37
2023-04-27T00:59:22.210Z,13.35
2023-04-27T01:01:50.701Z,13.27
2023-04-27T01:04:19.064Z,13.23
2023-04-27T01:06:47.213Z,13.16
2023-04-27T01:09:16.838Z,13.13
2023-04-27T01:11:44.903Z,13.03
2023-04-27T01:14:13.212Z,13.02
2023-04-27T01:16:41.336Z,13.00
2023-04-27T01:19:09.868Z,12.98
2023-04-27T01:21:38.293Z,12.91
2023-04-27T01:24:07.782Z,12.90
2023-04-27T01:26:36.200Z,12.89
2023-04-27T01:29:04.525Z,12.92
2023-04-27T01:31:33.196Z,12.87
2023-04-27T01:34:04.191Z,12.88
2023-04-27T01:36:32.751Z,12.92
2023-04-27T01:39:00.878Z,12.98
2023-04-27T01:41:51.454Z,13.01
2023-04-27T01:44:21.430Z,13.05
2023-04-27T01:46:49.565Z,13.07
2023-04-27T01:49:17.756Z,13.09
2023-04-27T01:51:45.799Z,13.10
2023-04-27T01:54:14.004Z,13.15
2023-04-27T01:56:42.443Z,13.12
2023-04-27T01:59:10.334Z,13.10
2023-04-27T02:01:38.832Z,13.12
2023-04-27T02:04:07.316Z,13.10
2023-04-27T02:06:36.800Z,13.00
2023-04-27T02:09:05.110Z,13.05
2023-04-27T02:11:33.532Z,13.04
2023-04-27T02:14:01.914Z,13.08
2023-04-27T02:16:30.418Z,13.11
2023-04-27T02:18:59.419Z,13.15
2023-04-27T02:21:28.712Z,13.20
2023-04-27T02:23:56.748Z,13.23
2023-04-27T02:26:31.352Z,13.28
2023-04-27T02:29:00.007Z,13.32
2023-04-27T02:31:28.599Z,13.34
2023-04-27T02:33:56.951Z,13.36
2023-04-27T02:36:25.365Z,13.39
2023-04-27T02:38:53.449Z,13.35
2023-04-27T02:41:21.541Z,13.39
2023-04-27T02:43:51.767Z,13.41
2023-04-27T02:46:19.933Z,13.33
2023-04-27T02:48:47.838Z,13.27
2023-04-27T02:51:16.171Z,13.24
2023-04-27T02:53:44.165Z,13.20
2023-04-27T02:56:12.261Z,13.20
2023-04-27T02:58:40.888Z,13.08
2023-04-27T03:01:10.021Z,13.13
2023-04-27T03:03:38.359Z,13.14
2023-04-27T03:06:07.050Z,13.14
2023-04-27T03:08:36.224Z,13.16
2023-04-27T03:11:29.497Z,13.27
2023-04-27T03:13:57.743Z,13.35
2023-04-27T03:16:26.245Z,13.38
2023-04-27T03:18:54.443Z,13.41
2023-04-27T03:21:22.625Z,13.43
2023-04-27T03:23:51.037Z,13.45
2023-04-27T03:26:19.202Z,13.56
2023-04-27T03:28:48.608Z,13.68
2023-04-27T03:31:17.646Z,13.69
2023-04-27T03:33:46.040Z,13.66
2023-04-27T03:36:14.446Z,13.57
2023-04-27T03:38:42.861Z,13.32
2023-04-27T03:41:11.112Z,13.02
2023-04-27T03:43:39.187Z,13.03
2023-04-27T03:46:07.394Z,12.96
2023-04-27T03:48:35.409Z,12.91
2023-04-27T03:51:03.833Z,12.86
2023-04-27T03:53:32.189Z,12.70
2023-04-27T03:56:02.700Z,12.65
2023-04-27T03:58:31.228Z,12.71
2023-04-27T04:00:59.760Z,12.83
2023-04-27T04:03:28.240Z,12.83
2023-04-27T04:05:56.726Z,12.74
2023-04-27T04:08:24.971Z,12.78
2023-04-27T04:10:52.791Z,12.83
2023-04-27T04:13:21.319Z,12.85
2023-04-27T04:15:49.429Z,12.96
2023-04-27T04:18:17.585Z,13.09
2023-04-27T04:20:45.535Z,13.25
2023-04-27T04:23:14.944Z,13.41
2023-04-27T04:25:43.661Z,13.52
2023-04-27T04:28:11.921Z,13.68
2023-04-27T04:30:40.830Z,13.79
2023-04-27T04:33:09.233Z,13.94
2023-04-27T04:35:41.814Z,14.14
2023-04-27T04:38:11.487Z,14.25
2023-04-27T04:40:39.746Z,14.35
2023-04-27T04:43:08.214Z,14.18
2023-04-27T04:45:37.361Z,14.10
2023-04-27T04:48:06.430Z,13.94
2023-04-27T04:50:34.556Z,13.72
2023-04-27T04:53:02.871Z,13.65
2023-04-27T04:55:30.764Z,13.63
2023-04-27T04:57:58.967Z,13.60
2023-04-27T05:00:30.127Z,13.59
2023-04-27T05:02:58.874Z,13.68
2023-04-27T05:05:27.181Z,13.78
2023-04-27T05:07:55.670Z,13.91
2023-04-27T05:10:23.985Z,14.04
2023-04-27T05:12:52.220Z,14.22
2023-04-27T05:15:20.198Z,14.46
2023-04-27T05:17:48.241Z,14.66
2023-04-27T05:20:16.337Z,14.82
2023-04-27T05:22:44.487Z,14.97
2023-04-27T05:25:12.851Z,15.07
2023-04-27T05:27:41.615Z,15.18
2023-04-27T05:30:11.771Z,15.41
2023-04-27T05:32:40.674Z,15.66
2023-04-27T05:35:08.880Z,15.90
2023-04-27T05:37:37.570Z,16.11
2023-04-27T05:40:09.985Z,16.46
2023-04-27T05:42:38.671Z,16.65
2023-04-27T05:45:07.394Z,16.63
2023-04-27T05:47:36.050Z,16.81
2023-04-27T05:50:05.625Z,16.94
2023-04-27T05:52:36.348Z,17.15
2023-04-27T05:55:13.607Z,17.56
2023-04-27T05:57:41.673Z,19.82
2023-04-27T06:00:13.224Z,22.31
2023-04-27T06:02:42.119Z,21.02
2023-04-27T06:05:10.544Z,19.84
2023-04-27T06:07:44.065Z,19.07
2023-04-27T06:10:12.245Z,19.72
2023-04-27T06:12:40.326Z,20.05
2023-04-27T06:15:09.590Z,21.21
2023-04-27T06:17:39.634Z,21.36
2023-04-27T06:20:09.626Z,21.12
2023-04-27T06:22:38.286Z,23.81
2023-04-27T06:25:07.214Z,25.79
2023-04-27T06:27:35.935Z,28.19
2023-04-27T06:30:05.375Z,28.98
2023-04-27T06:32:36.763Z,28.44
2023-04-27T06:35:05.540Z,28.12
2023-04-27T06:37:33.533Z,28.08
2023-04-27T06:40:01.800Z,28.10
2023-04-27T06:42:29.895Z,28.10
2023-04-27T06:45:02.480Z,27.57
2023-04-27T06:47:34.540Z,26.61
2023-04-27T06:50:02.455Z,25.29
2023-04-27T06:52:33.930Z,24.41
2023-04-27T06:55:01.937Z,23.24
2023-04-27T06:57:30.238Z,22.46
2023-04-27T06:59:58.778Z,22.06
2023-04-27T07:02:29.639Z,21.72
2023-04-27T07:04:57.583Z,21.17
2023-04-27T07:07:26.128Z,20.50
2023-04-27T07:09:54.658Z,20.24
2023-04-27T07:12:22.631Z,19.78
2023-04-27T07:14:51.555Z,19.89
2023-04-27T07:17:19.823Z,19.76
2023-04-27T07:19:48.371Z,19.69
2023-04-27T07:22:16.538Z,19.65
2023-04-27T07:24:44.856Z,19.62
2023-04-27T07:27:13.840Z,19.47
2023-04-27T07:29:42.704Z,19.41
2023-04-27T07:32:11.074Z,19.27
2023-04-27T07:34:51.866Z,19.40
2023-04-27T07:37:23.114Z,19.17
2023-04-27T07:39:54.862Z,19.32
2023-04-27T07:42:24.126Z,19.33
2023-04-27T07:44:52.749Z,19.29
2023-04-27T07:47:21.186Z,19.14
2023-04-27T07:49:49.322Z,18.97
2023-04-27T07:52:17.697Z,19.09
2023-04-27T07:54:46.216Z,19.28
2023-04-27T07:57:14.778Z,19.28
2023-04-27T07:59:43.221Z,19.32
2023-04-27T08:02:19.709Z,19.34
2023-04-27T08:04:49.948Z,19.45
2023-04-27T08:07:19.518Z,19.64
2023-04-27T08:09:47.635Z,19.85
2023-04-27T08:12:18.161Z,19.89
2023-04-27T08:14:47.571Z,19.93
2023-04-27T08:17:15.987Z,20.08
2023-04-27T08:19:44.376Z,20.04
2023-04-27T08:22:12.403Z,20.09
2023-04-27T08:24:41.022Z,20.28
2023-04-27T08:27:09.769Z,20.63
2023-04-27T08:29:38.938Z,20.72
2023-04-27T08:32:07.240Z,20.81
2023-04-27T08:34:35.536Z,20.96
2023-04-27T08:37:04.656Z,21.07
2023-04-27T08:39:33.494Z,21.21
2023-04-27T08:42:01.341Z,21.62
2023-04-27T08:44:30.080Z,22.01
2023-04-27T08:46:58.610Z,22.11
2023-04-27T08:49:27.509Z,22.19
2023-04-27T08:51:56.288Z,22.28
2023-04-27T08:54:25.139Z,22.06
2023-04-27T08:56:53.656Z,21.78
2023-04-27T08:59:21.685Z,21.84
2023-04-27T09:01:50.446Z,21.99
2023-04-27T09:04:20.549Z,22.01
2023-04-27T09:06:50.134Z,21.98
2023-04-27T09:09:25.570Z,21.88
2023-04-27T09:11:53.634Z,22.11
2023-04-27T09:14:23.233Z,22.25
2023-04-27T09:19:41.883Z,22.53
2023-04-27T09:22:12.095Z,22.63
2023-04-27T09:24:53.262Z,22.60
2023-04-27T09:27:22.239Z,22.73
2023-04-27T09:29:50.702Z,23.32
2023-04-27T09:32:21.348Z,23.54
2023-04-27T09:34:49.772Z,23.47
2023-04-27T09:37:18.373Z,23.44
2023-04-27T09:39:46.710Z,23.42
2023-04-27T09:42:17.808Z,23.33
2023-04-27T09:44:46.236Z,23.52
2023-04-27T09:47:14.794Z,23.41
2023-04-27T09:49:43.371Z,23.34
2023-04-27T09:52:11.382Z,23.24
2023-04-27T09:54:40.541Z,23.08
2023-04-27T09:57:47.105Z,23.55
2023-04-27T10:00:34.980Z,24.24
2023-04-27T10:03:17.257Z,24.75
2023-04-27T10:06:07.318Z,25.00
2023-04-27T10:08:36.895Z,25.28
2023-04-27T10:11:15.867Z,25.32
2023-04-27T10:13:55.009Z,25.81
2023-04-27T10:16:23.735Z,26.40
2023-04-27T10:18:56.166Z,26.54
2023-04-27T10:21:24.553Z,26.18
2023-04-27T10:23:53.428Z,26.25
2023-04-27T10:26:30.609Z,26.36
2023-04-27T10:29:08.572Z,26.11
2023-04-27T10:31:36.911Z,26.31
2023-04-27T10:34:09.262Z,26.58
2023-04-27T10:36:39.048Z,26.30
2023-04-27T10:39:39.641Z,26.30
2023-04-27T10:42:14.582Z,26.65
2023-04-27T10:44:43.416Z,27.07
2023-04-27T10:47:16.601Z,27.40
2023-04-27T10:49:44.771Z,27.54
2023-04-27T10:52:13.058Z,27.52
2023-04-27T10:54:47.751Z,27.33
2023-04-27T10:57:16.866Z,27.18
2023-04-27T10:59:52.686Z,26.60
2023-04-27T11:02:28.752Z,26.30
2023-04-27T11:04:57.734Z,26.33
2023-04-27T11:07:28.626Z,26.18
2023-04-27T11:09:56.502Z,26.04
2023-04-27T11:12:25.006Z,25.94
2023-04-27T11:14:58.996Z,25.87
2023-04-27T11:17:31.325Z,25.93
2023-04-27T11:19:59.842Z,25.90
2023-04-27T11:22:28.066Z,25.97
2023-04-27T11:24:56.985Z,25.62
2023-04-27T11:27:26.129Z,25.61
2023-04-27T11:29:54.076Z,25.63
2023-04-27T11:32:23.464Z,25.90
2023-04-27T11:34:59.551Z,26.10
2023-04-27T11:37:28.536Z,25.99
2023-04-27T11:40:01.283Z,25.67
2023-04-27T11:42:32.252Z,25.34
2023-04-27T11:45:00.380Z,25.50
2023-04-27T11:47:30.498Z,25.61
2023-04-27T11:50:05.692Z,25.53
2023-04-27T11:52:36.330Z,25.09
2023-04-27T11:55:05.623Z,25.28
2023-04-27T11:57:35.124Z,25.41
2023-04-27T12:00:11.472Z,25.32
2023-04-27T12:02:45.236Z,25.44
2023-04-27T12:05:14.763Z,25.41
2023-04-27T12:07:43.856Z,25.86
2023-04-27T12:10:12.260Z,26.01
2023-04-27T12:12:41.105Z,26.21
2023-04-27T12:15:10.257Z,26.12
2023-04-27T12:17:40.628Z,26.01
2023-04-27T12:20:09.371Z,25.68
2023-04-27T12:22:38.577Z,25.62
2023-04-27T12:25:07.057Z,26.14
2023-04-27T12:27:35.276Z,26.55
2023-04-27T12:30:04.997Z,26.88
2023-04-27T12:32:34.055Z,26.97
2023-04-27T12:35:02.486Z,26.56
2023-04-27T12:37:31.023Z,26.13
2023-04-27T12:40:01.305Z,25.89
2023-04-27T12:42:31.330Z,25.84
2023-04-27T12:44:59.492Z,25.75
2023-04-27T12:47:46.441Z,25.72
2023-04-27T12:50:16.156Z,25.72
2023-04-27T12:52:44.231Z,25.56
2023-04-27T12:55:24.896Z,25.68
2023-04-27T12:58:00.252Z,25.90
2023-04-27T13:00:30.162Z,26.10
2023-04-27T13:02:58.817Z,26.18
2023-04-27T13:05:28.732Z,26.11
2023-04-27T13:07:58.819Z,26.03
2023-04-27T13:10:27.115Z,25.98
2023-04-27T13:12:55.603Z,25.91
2023-04-27T13:15:23.713Z,25.91
2023-04-27T13:17:54.844Z,25.94
2023-04-27T13:20:23.804Z,25.92
2023-04-27T13:22:53.024Z,25.90
2023-04-27T13:25:24.248Z,25.86
2023-04-27T13:27:52.425Z,25.81
2023-04-27T13:30:20.522Z,25.79
2023-04-27T13:32:48.581Z,25.74
2023-04-27T13:35:16.885Z,25.64
2023-04-27T13:37:45.090Z,25.59
2023-04-27T13:40:13.204Z,25.58
2023-04-27T13:42:41.540Z,25.49
2023-04-27T13:45:10.256Z,25.45
2023-04-27T13:47:39.689Z,25.39
2023-04-27T13:50:10.077Z,25.21
2023-04-27T13:52:39.172Z,25.15
2023-04-27T13:55:10.333Z,25.21
2023-04-27T13:57:38.804Z,25.15
2023-04-27T14:00:11.820Z,24.99
2023-04-27T14:02:40.893Z,24.73
2023-04-27T14:05:09.343Z,24.67
2023-04-27T14:07:38.047Z,24.61
2023-04-27T14:10:07.247Z,24.63
2023-04-27T14:12:36.490Z,24.57
2023-04-27T14:15:04.976Z,24.48
2023-04-27T14:17:34.322Z,24.34
2023-04-27T14:20:07.476Z,24.10
2023-04-27T14:22:36.513Z,23.96
2023-04-27T14:25:05.133Z,23.74
2023-04-27T14:27:35.704Z,23.60
2023-04-27T14:30:04.297Z,23.55
2023-04-27T14:32:33.494Z,23.35
2023-04-27T14:35:01.763Z,23.26
2023-04-27T14:37:30.279Z,23.17
2023-04-27T14:39:58.545Z,23.13
2023-04-27T14:42:26.811Z,23.05
2023-04-27T14:44:55.023Z,22.93
2023-04-27T14:47:23.254Z,22.84
2023-04-27T14:49:51.927Z,22.68
2023-04-27T14:52:20.277Z,22.56
2023-04-27T14:54:48.474Z,22.48
2023-04-27T14:57:18.474Z,22.34
2023-04-27T14:59:46.829Z,22.21
2023-04-27T15:02:15.119Z,22.06
2023-04-27T15:04:43.158Z,21.89
2023-04-27T15:07:11.467Z,21.76
2023-04-27T15:09:39.610Z,21.59
2023-04-27T15:12:08.261Z,21.38
2023-04-27T15:14:36.416Z,21.23
2023-04-27T15:17:05.090Z,20.96
2023-04-27T15:19:33.549Z,20.76
2023-04-27T15:22:02.151Z,20.58
2023-04-27T15:24:33.119Z,20.42
2023-04-27T15:27:01.856Z,20.28
2023-04-27T15:29:30.212Z,20.16
2023-04-27T15:31:58.245Z,20.02
2023-04-27T15:34:26.557Z,19.90
2023-04-27T15:36:55.284Z,19.77
2023-04-27T15:39:24.291Z,19.67
2023-04-27T15:41:52.762Z,19.59
2023-04-27T15:44:22.183Z,19.48
2023-04-27T15:46:50.299Z,19.42
2023-04-27T15:49:18.537Z,19.36
2023-04-27T15:51:46.625Z,19.37
2023-04-27T15:54:14.717Z,19.35
2023-04-27T15:56:42.944Z,19.35
2023-04-27T15:59:10.807Z,19.36
2023-04-27T16:01:40.388Z,19.37
2023-04-27T16:04:09.408Z,19.40
2023-04-27T16:06:40.140Z,19.49
2023-04-27T16:09:11.990Z,19.57
2023-04-27T16:11:40.722Z,19.64
2023-04-27T16:14:12.383Z,19.71
2023-04-27T16:16:42.783Z,19.72
2023-04-27T16:19:13.831Z,19.76
2023-04-27T16:21:42.108Z,19.75
2023-04-27T16:24:10.066Z,19.73
2023-04-27T16:26:38.692Z,19.69
2023-04-27T16:29:07.478Z,19.70
2023-04-27T16:31:35.906Z,19.68
2023-04-27T16:34:04.350Z,19.65
2023-04-27T16:36:35.182Z,19.63
2023-04-27T16:39:05.274Z,19.57
2023-04-27T16:41:33.549Z,19.48
2023-04-27T16:44:01.378Z,19.43
2023-04-27T16:46:29.703Z,19.36
2023-04-27T16:48:57.958Z,19.30
2023-04-27T16:51:27.133Z,19.18
2023-04-27T16:53:55.543Z,19.10
2023-04-27T16:56:34.885Z,19.06
2023-04-27T16:59:04.628Z,18.99
2023-04-27T17:01:33.767Z,18.98
2023-04-27T17:04:03.065Z,18.94
2023-04-27T17:06:31.912Z,18.91
2023-04-27T17:09:00.419Z,18.93
2023-04-27T17:11:30.985Z,18.91
2023-04-27T17:13:59.258Z,18.86
2023-04-27T17:16:27.552Z,18.84
2023-04-27T17:18:56.646Z,18.79
2023-04-27T17:21:32.220Z,18.77
2023-04-27T17:24:00.874Z,18.71
2023-04-27T17:26:53.885Z,18.61
2023-04-27T17:29:22.527Z,18.50
2023-04-27T17:31:50.802Z,18.41
2023-04-27T17:34:18.990Z,18.32
2023-04-27T17:36:47.113Z,18.23
2023-04-27T17:39:15.695Z,18.11
2023-04-27T17:41:44.420Z,18.00
2023-04-27T17:44:13.265Z,17.95
2023-04-27T17:46:49.291Z,17.86
2023-04-27T17:49:18.243Z,17.59
2023-04-27T17:51:49.653Z,17.21
2023-04-27T17:54:18.309Z,16.91
2023-04-27T17:56:46.934Z,16.61
2023-04-27T17:59:17.745Z,16.43
2023-04-27T18:01:45.983Z,16.15
2023-04-27T18:04:14.046Z,16.04
2023-04-27T18:06:42.308Z,15.99
2023-04-27T18:09:10.801Z,15.96
2023-04-27T18:11:39.876Z,15.88
2023-04-27T18:14:07.867Z,15.80
2023-04-27T18:16:36.218Z,15.80
2023-04-27T18:19:07.074Z,15.74
2023-04-27T18:21:37.729Z,15.68
2023-04-27T18:24:06.640Z,15.65
2023-04-27T18:26:37.295Z,15.60
2023-04-27T18:29:05.717Z,15.50
2023-04-27T18:31:35.641Z,15.44
2023-04-27T18:34:06.473Z,15.42
2023-04-27T18:36:34.712Z,15.40
2023-04-27T18:39:03.309Z,15.39
2023-04-27T18:41:32.258Z,15.37
2023-04-27T18:44:06.887Z,15.35
2023-04-27T18:46:35.646Z,15.31
2023-04-27T18:49:03.678Z,15.23
2023-04-27T18:51:32.464Z,15.20
2023-04-27T18:54:00.468Z,15.16
2023-04-27T18:56:28.645Z,15.14
2023-04-27T18:58:56.877Z,15.14
2023-04-27T19:01:32.833Z,15.16
2023-04-27T19:04:01.116Z,15.11
2023-04-27T19:06:29.428Z,15.06
2023-04-27T19:08:58.268Z,15.03
2023-04-27T19:11:27.031Z,15.00
2023-04-27T19:13:55.117Z,14.96
2023-04-27T19:16:25.070Z,14.91
2023-04-27T19:18:53.086Z,14.88
2023-04-27T19:21:21.381Z,14.89
2023-04-27T19:23:50.024Z,14.86
2023-04-27T19:26:20.643Z,14.83
2023-04-27T19:28:49.104Z,14.83
2023-04-27T19:31:20.121Z,14.85
2023-04-27T19:36:23.353Z,14.92
2023-04-27T19:38:51.801Z,14.97
2023-04-27T19:41:20.068Z,15.03
2023-04-27T19:43:49.988Z,15.04
2023-04-27T19:46:18.624Z,15.02
2023-04-27T19:48:46.938Z,15.04
2023-04-27T19:51:15.293Z,15.04
2023-04-27T19:53:43.362Z,14.98
2023-04-27T19:56:14.556Z,14.99
2023-04-27T19:58:42.597Z,14.96
2023-04-27T20:01:12.951Z,14.96
2023-04-27T20:03:41.897Z,14.93
2023-04-27T20:06:10.636Z,14.86
2023-04-27T20:08:39.202Z,14.79
2023-04-27T20:11:07.132Z,14.69
2023-04-27T20:13:36.360Z,14.60
2023-04-27T20:16:05.396Z,14.45
2023-04-27T20:18:34.179Z,14.40
2023-04-27T20:21:03.816Z,14.31
2023-04-27T20:23:32.321Z,14.28
2023-04-27T20:26:00.978Z,14.25
2023-04-27T20:28:30.617Z,14.23
2023-04-27T20:30:59.038Z,14.22
2023-04-27T20:33:27.465Z,14.20
2023-04-27T20:36:03.709Z,14.18
2023-04-27T20:38:38.449Z,14.15
2023-04-27T20:41:06.595Z,14.16
2023-04-27T20:43:34.889Z,14.16
2023-04-27T20:46:03.039Z,14.16
2023-04-27T20:48:34.078Z,14.11
2023-04-27T20:51:02.388Z,14.09
2023-04-27T20:53:31.439Z,14.06
2023-04-27T20:55:59.547Z,14.07
2023-04-27T20:58:27.962Z,14.06
2023-04-27T21:00:56.111Z,14.05
2023-04-27T21:03:24.364Z,14.10
2023-04-27T21:05:52.513Z,14.10
2023-04-27T21:08:21.298Z,14.12
2023-04-27T21:10:49.714Z,14.11
2023-04-27T21:13:20.653Z,14.11
2023-04-27T21:15:49.049Z,14.10
2023-04-27T21:18:29.076Z,14.09
2023-04-27T21:20:59.670Z,14.11
2023-04-27T21:23:27.919Z,14.12
2023-04-27T21:25:57.710Z,14.09
2023-04-27T21:28:27.272Z,14.10
2023-04-27T21:30:58.669Z,14.13
2023-04-27T21:33:26.735Z,14.10
2023-04-27T21:35:55.313Z,14.07
2023-04-27T21:38:23.590Z,14.07
2023-04-27T21:40:52.138Z,14.06
2023-04-27T21:43:20.307Z,14.07
2023-04-27T21:45:49.493Z,14.09
2023-04-27T21:48:21.110Z,14.13
2023-04-27T21:50:51.986Z,14.18
2023-04-27T21:53:20.487Z,14.22
2023-04-27T21:55:49.742Z,14.27
2023-04-27T21:58:17.726Z,14.32
2023-04-27T22:00:45.982Z,14.40
2023-04-27T22:03:14.528Z,14.44
2023-04-27T22:05:43.101Z,14.47
2023-04-27T22:08:11.415Z,14.48
2023-04-27T22:10:39.738Z,14.44
2023-04-27T22:13:18.699Z,14.45
2023-04-27T22:15:52.338Z,14.45
2023-04-27T22:18:20.785Z,14.45
2023-04-27T22:20:49.755Z,14.48
2023-04-27T22:23:19.884Z,14.54
2023-04-27T22:25:48.017Z,14.52
2023-04-27T22:28:16.238Z,14.54
2023-04-27T22:30:44.772Z,14.57
2023-04-27T22:33:13.414Z,14.56
2023-04-27T22:35:41.961Z,14.61
2023-04-27T22:38:10.442Z,14.55
2023-04-27T22:40:38.531Z,14.56
2023-04-27T22:43:06.874Z,14.58
2023-04-27T22:45:36.147Z,14.58
2023-04-27T22:48:07.578Z,14.60
2023-04-27T22:50:36.055Z,14.57
2023-04-27T22:53:05.196Z,14.55
2023-04-27T22:55:33.936Z,14.47
2023-04-27T22:58:05.139Z,14.41
2023-04-27T23:00:33.908Z,14.39
2023-04-27T23:03:02.646Z,14.31
2023-04-27T23:05:31.376Z,14.29
2023-04-27T23:08:00.214Z,14.27
2023-04-27T23:10:31.320Z,14.17
2023-04-27T23:13:02.400Z,14.19
2023-04-27T23:15:31.593Z,14.19
2023-04-27T23:18:00.179Z,14.13
2023-04-27T23:20:29.334Z,14.09
2023-04-27T23:22:58.268Z,14.11
2023-04-27T23:25:26.560Z,14.07
2023-04-27T23:27:54.661Z,14.13
2023-04-27T23:30:22.900Z,14.14
2023-04-27T23:32:51.095Z,14.14
2023-04-27T23:35:19.528Z,14.19
2023-04-27T23:37:47.877Z,14.13
2023-04-27T23:40:15.879Z,14.13
2023-04-27T23:42:44.031Z,14.13
2023-04-27T23:45:14.687Z,14.17
2023-04-27T23:47:43.297Z,14.18
2023-04-27T23:50:11.407Z,14.15
2023-04-27T23:52:40.106Z,14.20
2023-04-27T23:55:08.563Z,14.18
2023-04-27T23:57:36.551Z,14.21
